Hovedside
METAR-TAF:

METAR-TAF

Lufthavner :

Svalbard lufthavn. Longyear

Longyearbyen, Norge

breddegrad: 78-15N, lengdegrad: 015-28E, høyde over havet: 2 m

Gjeldene værobservasjon

Denne rapporten ble laget for 12 minutter siden, klokken 23:50 UTC
Vind 11 kt fra Nordvest
Temperatur 2°C
Luftfuktighet 64%
Trykk 994 hPa
Sikt 10 km eller mer
Spredte skyer i en høyde av 4500 ft

METAR: ENSB 222350Z 32011KT 9999 SCT045 02/M04 Q0994 RMK WIND 1400FT 33009KT

Tid: 02:02 (00:02 UTC)

Varsel

Varsel gyldig fra 23. klokken 00 UTC til 23. klokken 24 UTC
Vind 8 kt fra Nord-nordvest
Sikt 10 km eller mer
Få skyer i en høyde av 2000 ft
Spredte skyer i en høyde av 3000 ft

TAF: ENSB 2300/2324 34008KT 9999 FEW020 SCT030

Værobservasjoner og værvarsel for over 4000 flyplasser (METAR- og TAF-rapporter).

Tilgjengelige stasjoner er representert av de røde og gule prikkene på kartet.

Hold musepekeren over prikken for å se navnet på stasjonen.

Klikk så for å se værobservasjoner og -varsler.

For å forandre kartet kan du klikke på den grønne knappen med svart kryss for å zoome inn, på den grønne knappen med strek for å zoome ut, eller på de grønne pilene for å se tilstøtende kart.


METAR-TAF: